createdAt,value
2023-05-06T00:02:56.162Z,8.20
2023-05-06T00:07:59.770Z,6.68
2023-05-06T00:13:03.273Z,6.32
2023-05-06T00:18:07.419Z,6.47
2023-05-06T00:23:11.543Z,5.85
2023-05-06T00:28:15.833Z,6.82
2023-05-06T00:33:19.411Z,6.28
2023-05-06T00:38:23.228Z,6.40
2023-05-06T00:43:27.029Z,6.50
2023-05-06T00:48:30.507Z,5.88
2023-05-06T00:53:34.549Z,7.15
2023-05-06T00:58:38.543Z,6.78
2023-05-06T01:03:42.697Z,6.15
2023-05-06T01:08:55.058Z,6.30
2023-05-06T01:14:07.001Z,6.72
2023-05-06T01:19:17.605Z,6.70
2023-05-06T01:24:21.309Z,6.30
2023-05-06T01:29:24.407Z,5.78
2023-05-06T01:34:42.764Z,6.65
2023-05-06T01:39:48.869Z,6.22
2023-05-06T01:44:53.885Z,6.70
2023-05-06T01:49:59.279Z,6.55
2023-05-06T01:55:03.297Z,6.03
2023-05-06T02:00:07.595Z,6.03
2023-05-06T02:05:16.208Z,6.07
2023-05-06T02:10:23.738Z,4.95
2023-05-06T02:15:34.719Z,6.10
2023-05-06T02:20:38.266Z,5.68
2023-05-06T02:25:42.955Z,5.45
2023-05-06T02:30:46.379Z,5.43
2023-05-06T02:35:50.659Z,7.15
2023-05-06T02:40:54.364Z,6.45
2023-05-06T02:45:58.305Z,5.88
2023-05-06T02:51:02.697Z,5.85
2023-05-06T02:56:06.516Z,6.38
2023-05-06T03:01:09.715Z,5.97
2023-05-06T03:06:13.753Z,5.78
2023-05-06T03:11:16.775Z,5.47
2023-05-06T03:16:21.358Z,6.22
2023-05-06T03:21:28.107Z,5.40
2023-05-06T03:26:32.154Z,6.10
2023-05-06T03:31:36.182Z,5.53
2023-05-06T03:36:39.904Z,5.63
2023-05-06T03:41:43.782Z,5.53
2023-05-06T03:46:47.136Z,6.03
2023-05-06T03:51:51.549Z,6.03
2023-05-06T03:56:55.645Z,5.85
2023-05-06T04:01:59.226Z,5.70
2023-05-06T04:07:04.272Z,5.38
2023-05-06T04:12:08.804Z,5.05
2023-05-06T04:17:13.143Z,5.78
2023-05-06T04:22:18.281Z,4.78
2023-05-06T04:27:21.585Z,5.88
2023-05-06T04:32:26.017Z,4.88
2023-05-06T04:37:31.181Z,5.80
2023-05-06T04:42:48.047Z,5.28
2023-05-06T04:47:56.773Z,6.63
2023-05-06T04:53:01.452Z,9.20
2023-05-06T04:58:06.017Z,8.20
2023-05-06T05:03:10.804Z,5.65
2023-05-06T05:08:15.106Z,6.72
2023-05-06T05:13:19.430Z,9.98
2023-05-06T05:18:23.309Z,8.98
2023-05-06T05:23:31.281Z,9.50
2023-05-06T05:28:35.819Z,12.43
2023-05-06T05:33:40.504Z,17.20
2023-05-06T05:38:49.145Z,11.45
2023-05-06T05:43:53.741Z,7.80
2023-05-06T05:48:58.264Z,4.55
2023-05-06T05:54:02.435Z,4.28
2023-05-06T05:59:06.647Z,4.30
2023-05-06T06:04:11.393Z,6.13
2023-05-06T06:09:14.629Z,2.95
2023-05-06T06:14:18.950Z,3.40
2023-05-06T06:19:24.439Z,3.83
2023-05-06T06:24:28.577Z,3.05
2023-05-06T06:29:34.008Z,2.70
2023-05-06T06:34:37.776Z,4.03
2023-05-06T06:39:41.129Z,3.42
2023-05-06T06:44:45.176Z,3.67
2023-05-06T06:49:48.424Z,3.30
2023-05-06T06:54:51.497Z,4.25
2023-05-06T06:59:56.164Z,3.53
2023-05-06T07:04:59.758Z,2.85
2023-05-06T07:10:03.318Z,2.63
2023-05-06T07:15:07.578Z,2.88
2023-05-06T07:20:12.247Z,2.30
2023-05-06T07:25:16.096Z,3.30
2023-05-06T07:30:22.411Z,2.85
2023-05-06T07:35:26.998Z,2.25
2023-05-06T07:40:31.358Z,2.78
2023-05-06T07:45:35.215Z,3.03
2023-05-06T07:50:38.420Z,3.33
2023-05-06T07:55:41.610Z,3.05
2023-05-06T08:00:45.198Z,3.92
2023-05-06T08:05:51.678Z,3.67
2023-05-06T08:10:59.106Z,3.35
2023-05-06T08:16:02.987Z,3.63
2023-05-06T08:21:07.056Z,3.38
2023-05-06T08:26:10.954Z,3.35
2023-05-06T08:31:14.853Z,3.40
2023-05-06T08:36:18.554Z,3.50
2023-05-06T08:41:22.662Z,4.05
2023-05-06T08:46:27.703Z,4.15
2023-05-06T08:51:32.083Z,4.37
2023-05-06T08:56:38.206Z,3.60
2023-05-06T09:01:41.698Z,3.17
2023-05-06T09:06:44.893Z,3.75
2023-05-06T09:11:54.450Z,3.72
2023-05-06T09:16:58.722Z,3.80
2023-05-06T09:22:02.285Z,3.67
2023-05-06T09:27:08.344Z,3.97
2023-05-06T09:32:16.444Z,3.88
2023-05-06T09:37:21.352Z,5.00
2023-05-06T09:42:29.547Z,4.18
2023-05-06T09:47:36.740Z,3.72
2023-05-06T09:52:40.305Z,3.85
2023-05-06T09:57:45.448Z,3.65
2023-05-06T10:02:50.499Z,3.08
2023-05-06T10:07:57.633Z,3.97
2023-05-06T10:13:05.094Z,3.22
2023-05-06T10:18:09.933Z,7.15
2023-05-06T10:23:29.972Z,3.63
2023-05-06T10:28:40.272Z,2.97
2023-05-06T10:33:48.192Z,2.58
2023-05-06T10:38:57.533Z,2.75
2023-05-06T10:44:01.094Z,2.88
2023-05-06T10:49:11.643Z,2.75
2023-05-06T10:54:21.913Z,3.97
2023-05-06T10:59:26.851Z,2.85
2023-05-06T11:04:31.658Z,3.00
2023-05-06T11:09:58.541Z,3.08
2023-05-06T11:15:39.561Z,3.15
2023-05-06T11:20:43.112Z,3.47
2023-05-06T11:25:47.710Z,3.17
2023-05-06T11:30:56.143Z,9.93
2023-05-06T11:36:01.559Z,5.90
2023-05-06T11:46:07.831Z,3.42
2023-05-06T11:51:11.694Z,3.45
2023-05-06T11:56:15.076Z,3.30
2023-05-06T12:01:18.804Z,4.15
2023-05-06T12:06:34.785Z,3.45
2023-05-06T12:16:43.157Z,3.78
2023-05-06T12:21:47.262Z,3.80
2023-05-06T12:26:50.506Z,4.38
2023-05-06T12:32:09.484Z,3.63
2023-05-06T12:37:25.924Z,3.47
2023-05-06T12:42:29.721Z,3.30
2023-05-06T12:47:33.644Z,3.13
2023-05-06T12:52:45.308Z,3.38
2023-05-06T12:57:49.566Z,3.50
2023-05-06T13:02:53.465Z,3.47
2023-05-06T13:07:56.736Z,3.15
2023-05-06T13:13:01.074Z,3.42
2023-05-06T13:18:04.501Z,3.00
2023-05-06T13:23:08.139Z,2.83
2023-05-06T13:28:11.271Z,2.92
2023-05-06T13:33:15.074Z,3.00
2023-05-06T13:38:18.331Z,3.00
2023-05-06T13:43:25.152Z,2.83
2023-05-06T13:48:28.375Z,2.63
2023-05-06T13:53:32.610Z,2.78
2023-05-06T13:58:36.323Z,2.77
2023-05-06T14:03:39.671Z,2.88
2023-05-06T14:08:43.399Z,3.00
2023-05-06T14:13:46.542Z,2.72
2023-05-06T14:18:50.071Z,3.20
2023-05-06T14:23:53.738Z,2.65
2023-05-06T14:28:57.656Z,2.50
2023-05-06T14:34:02.065Z,3.07
2023-05-06T14:39:06.348Z,2.65
2023-05-06T14:44:09.857Z,3.57
2023-05-06T14:49:13.497Z,3.58
2023-05-06T14:54:17.831Z,2.78
2023-05-06T14:59:23.689Z,3.00
2023-05-06T15:04:28.011Z,2.40
2023-05-06T15:09:31.946Z,2.73
2023-05-06T15:14:35.536Z,2.75
2023-05-06T15:19:39.949Z,2.78
2023-05-06T15:24:43.680Z,2.57
2023-05-06T15:29:47.511Z,2.22
2023-05-06T15:34:50.603Z,2.63
2023-05-06T15:39:54.121Z,2.60
2023-05-06T15:44:58.708Z,2.80
2023-05-06T15:50:03.647Z,2.72
2023-05-06T15:55:14.581Z,2.75
2023-05-06T16:00:18.030Z,2.70
2023-05-06T16:05:21.721Z,2.80
2023-05-06T16:10:26.094Z,2.92
2023-05-06T16:15:30.089Z,3.08
2023-05-06T16:20:33.186Z,3.20
2023-05-06T16:25:40.637Z,3.55
2023-05-06T16:30:46.637Z,4.18
2023-05-06T16:35:50.243Z,3.60
2023-05-06T16:40:54.340Z,3.28
2023-05-06T16:45:57.743Z,3.08
2023-05-06T16:51:01.990Z,3.72
2023-05-06T16:56:06.305Z,3.30
2023-05-06T17:01:11.528Z,3.63
2023-05-06T17:06:15.194Z,3.50
2023-05-06T17:11:18.849Z,3.60
2023-05-06T17:16:24.310Z,3.90
2023-05-06T17:21:28.504Z,4.32
2023-05-06T17:26:33.434Z,4.55
2023-05-06T17:31:37.159Z,5.10
2023-05-06T17:36:41.452Z,4.72
2023-05-06T17:41:44.710Z,4.72
2023-05-06T17:46:48.731Z,5.28
2023-05-06T17:51:53.084Z,4.82
2023-05-06T17:56:56.655Z,5.35
2023-05-06T18:02:00.678Z,5.72
2023-05-06T18:07:04.226Z,5.13
2023-05-06T18:12:08.224Z,4.72
2023-05-06T18:17:12.283Z,5.72
2023-05-06T18:22:15.972Z,4.97
2023-05-06T18:27:19.874Z,4.78
2023-05-06T18:32:23.596Z,4.43
2023-05-06T18:37:30.213Z,5.05
2023-05-06T18:42:35.606Z,5.18
2023-05-06T18:47:40.588Z,4.85
2023-05-06T18:52:44.462Z,4.82
2023-05-06T18:57:48.156Z,5.82
2023-05-06T19:02:52.604Z,6.13
2023-05-06T19:07:56.754Z,6.38
2023-05-06T19:13:00.098Z,5.40
2023-05-06T19:18:04.205Z,6.13
2023-05-06T19:23:08.140Z,5.63
2023-05-06T19:28:19.521Z,5.82
2023-05-06T19:33:26.830Z,6.13
2023-05-06T19:38:30.600Z,5.97
2023-05-06T19:43:34.609Z,5.80
2023-05-06T19:48:42.009Z,5.95
2023-05-06T19:53:46.121Z,5.78
2023-05-06T19:58:51.320Z,5.15
2023-05-06T20:03:55.789Z,5.38
2023-05-06T20:08:59.039Z,5.63
2023-05-06T20:14:02.556Z,6.00
2023-05-06T20:19:06.423Z,5.55
2023-05-06T20:24:09.435Z,5.75
2023-05-06T20:29:14.105Z,5.85
2023-05-06T20:34:19.260Z,5.03
2023-05-06T20:39:27.671Z,6.38
2023-05-06T20:44:33.336Z,6.32
2023-05-06T20:49:37.305Z,6.22
2023-05-06T20:54:45.547Z,7.15
2023-05-06T20:59:52.885Z,5.70
2023-05-06T21:04:56.060Z,6.00
2023-05-06T21:10:00.549Z,7.07
2023-05-06T21:15:05.036Z,7.20
2023-05-06T21:20:08.972Z,6.50
2023-05-06T21:25:13.507Z,6.50
2023-05-06T21:30:17.655Z,6.63
2023-05-06T21:35:22.846Z,6.35
2023-05-06T21:40:26.738Z,5.82
2023-05-06T21:45:30.594Z,6.85
2023-05-06T21:50:33.655Z,6.30
2023-05-06T21:55:37.887Z,6.47
2023-05-06T22:00:41.618Z,6.32
2023-05-06T22:05:44.647Z,7.13
2023-05-06T22:10:48.768Z,6.80
2023-05-06T22:15:52.323Z,6.15
2023-05-06T22:20:57.074Z,6.43
2023-05-06T22:26:01.117Z,6.72
2023-05-06T22:31:04.901Z,7.68
2023-05-06T22:36:08.797Z,7.72
2023-05-06T22:41:12.029Z,6.28
2023-05-06T22:46:15.931Z,5.65
2023-05-06T22:51:21.458Z,6.10
2023-05-06T22:56:25.295Z,6.05
2023-05-06T23:01:32.438Z,5.22
2023-05-06T23:11:41.141Z,5.30
2023-05-06T23:16:44.657Z,5.95
2023-05-06T23:21:48.417Z,5.97
2023-05-06T23:26:52.731Z,5.93
2023-05-06T23:31:56.285Z,6.05
2023-05-06T23:37:00.257Z,5.55
2023-05-06T23:42:03.835Z,5.68
2023-05-06T23:47:07.742Z,5.45
2023-05-06T23:52:11.462Z,6.15
2023-05-06T23:57:15.086Z,6.00
